createdAt,value
2023-03-23T15:58:45.330Z,81.90
2023-03-23T16:01:18.919Z,82.70
2023-03-23T16:03:55.280Z,82.50
2023-03-23T16:06:33.325Z,82.20
2023-03-23T16:09:11.301Z,82.10
2023-03-23T16:11:42.498Z,82.00
2023-03-23T16:14:13.162Z,82.10
2023-03-23T16:16:50.492Z,82.50
2023-03-23T16:19:31.468Z,82.50
2023-03-23T16:22:03.713Z,83.00
2023-03-23T16:24:35.134Z,82.30
2023-03-23T16:27:05.938Z,82.00
2023-03-23T16:32:10.637Z,82.30
2023-03-23T16:34:40.844Z,82.00
2023-03-23T16:37:13.674Z,82.10
2023-03-23T16:39:47.686Z,82.50
2023-03-23T16:42:17.552Z,82.00
2023-03-23T16:44:51.010Z,82.40
2023-03-23T16:47:23.866Z,83.20
2023-03-23T16:49:54.482Z,82.40
2023-03-23T16:52:27.501Z,82.60
2023-03-23T16:54:59.188Z,82.30
2023-03-23T16:57:32.521Z,82.20
2023-03-23T17:00:02.711Z,82.20
2023-03-23T17:02:33.129Z,82.30
2023-03-23T17:05:14.961Z,82.50
2023-03-23T17:07:45.099Z,83.00
2023-03-23T17:10:18.830Z,82.20
2023-03-23T17:12:49.018Z,82.60
2023-03-23T17:15:21.379Z,82.50
2023-03-23T17:17:51.379Z,82.70
2023-03-23T17:20:23.764Z,82.50
2023-03-23T17:22:53.916Z,82.90
2023-03-23T17:25:30.714Z,82.70
2023-03-23T17:28:05.857Z,82.50
2023-03-23T17:30:42.798Z,83.20
2023-03-23T17:33:16.020Z,83.00
2023-03-23T17:35:52.024Z,83.00
2023-03-23T17:38:24.970Z,83.20
2023-03-23T17:41:00.196Z,82.70
2023-03-23T17:43:33.979Z,82.90
2023-03-23T17:46:04.027Z,83.20
2023-03-23T17:48:34.367Z,82.90
2023-03-23T17:51:04.074Z,83.10
2023-03-23T17:53:35.690Z,83.80
2023-03-23T17:56:08.290Z,83.90
2023-03-23T17:58:40.140Z,83.90
2023-03-23T18:01:09.406Z,83.90
2023-03-23T18:03:38.494Z,83.80
2023-03-23T18:06:10.055Z,83.80
2023-03-23T18:08:39.850Z,83.80
2023-03-23T18:11:10.708Z,83.90
2023-03-23T18:13:40.047Z,84.00
2023-03-23T18:16:10.639Z,84.00
2023-03-23T18:18:39.714Z,83.90
2023-03-23T18:21:10.965Z,83.80
2023-03-23T18:23:49.321Z,83.90
2023-03-23T18:26:27.260Z,83.80
2023-03-23T18:28:56.907Z,83.90
2023-03-23T18:31:26.079Z,84.60
2023-03-23T18:33:55.856Z,83.90
2023-03-23T18:36:27.563Z,83.90
2023-03-23T18:38:58.485Z,83.90
2023-03-23T18:41:29.036Z,84.50
2023-03-23T18:43:58.077Z,83.70
2023-03-23T18:46:27.285Z,84.40
2023-03-23T18:48:56.377Z,83.60
2023-03-23T18:51:26.251Z,83.60
2023-03-23T18:53:55.392Z,83.50
2023-03-23T18:56:24.550Z,83.40
2023-03-23T18:58:55.338Z,83.60
2023-03-23T19:01:24.464Z,83.60
2023-03-23T19:03:53.697Z,83.60
2023-03-23T19:06:25.286Z,83.60
2023-03-23T19:08:55.036Z,83.60
2023-03-23T19:11:27.284Z,83.70
2023-03-23T19:14:02.921Z,83.70
2023-03-23T19:16:35.779Z,83.90
2023-03-23T19:19:07.797Z,83.90
2023-03-23T19:21:39.832Z,84.00
2023-03-23T19:24:10.730Z,84.00
2023-03-23T19:26:42.503Z,84.00
2023-03-23T19:31:48.577Z,84.10
2023-03-23T19:34:18.022Z,84.10
2023-03-23T19:36:54.925Z,84.10
2023-03-23T19:39:25.380Z,84.20
2023-03-23T19:41:54.419Z,84.10
2023-03-23T19:44:25.386Z,84.30
2023-03-23T19:46:55.991Z,84.30
2023-03-23T19:49:25.490Z,84.40
2023-03-23T19:52:05.234Z,84.40
2023-03-23T19:54:38.517Z,84.40
2023-03-23T19:57:08.857Z,84.40
2023-03-23T19:59:39.632Z,84.40
2023-03-23T20:02:10.674Z,85.10
2023-03-23T20:04:39.955Z,84.40
2023-03-23T20:07:12.588Z,84.40
2023-03-23T20:09:41.779Z,84.40
2023-03-23T20:12:11.019Z,84.40
2023-03-23T20:14:44.451Z,84.20
2023-03-23T20:17:16.480Z,84.40
2023-03-23T20:19:45.587Z,84.30
2023-03-23T20:22:15.553Z,85.00
2023-03-23T20:24:48.269Z,84.20
2023-03-23T20:27:18.750Z,84.20
2023-03-23T20:29:49.105Z,84.20
2023-03-23T20:32:18.174Z,84.20
2023-03-23T20:34:49.266Z,84.20
2023-03-23T20:37:20.566Z,84.30
2023-03-23T20:39:49.701Z,84.40
2023-03-23T20:42:21.460Z,84.30
2023-03-23T20:44:54.826Z,84.40
2023-03-23T20:47:23.969Z,84.40
2023-03-23T20:49:53.899Z,84.30
2023-03-23T20:52:23.898Z,84.30
2023-03-23T20:54:53.308Z,84.50
2023-03-23T20:57:23.621Z,83.80
2023-03-23T20:59:55.349Z,84.40
2023-03-23T21:02:25.978Z,84.40
2023-03-23T21:04:55.189Z,84.30
2023-03-23T21:07:27.494Z,84.30
2023-03-23T21:09:56.500Z,84.30
2023-03-23T21:12:25.849Z,84.30
2023-03-23T21:14:56.909Z,84.40
2023-03-23T21:17:25.907Z,85.10
2023-03-23T21:19:55.548Z,85.20
2023-03-23T21:22:24.694Z,84.20
2023-03-23T21:24:53.762Z,84.10
2023-03-23T21:27:22.751Z,84.20
2023-03-23T21:29:59.484Z,84.30
2023-03-23T21:32:29.030Z,84.20
2023-03-23T21:35:02.400Z,84.10
2023-03-23T21:37:31.844Z,84.10
2023-03-23T21:40:00.929Z,84.10
2023-03-23T21:42:31.122Z,84.20
2023-03-23T21:45:03.054Z,84.80
2023-03-23T21:47:32.249Z,84.20
2023-03-23T21:50:01.987Z,84.10
2023-03-23T21:52:32.397Z,84.10
2023-03-23T21:55:02.817Z,84.20
2023-03-23T21:57:33.632Z,84.10
2023-03-23T22:00:08.217Z,84.40
2023-03-23T22:02:37.286Z,84.50
2023-03-23T22:05:06.846Z,84.80
2023-03-23T22:07:39.897Z,84.30
2023-03-23T22:10:14.520Z,84.00
2023-03-23T22:12:43.705Z,83.90
2023-03-23T22:15:16.370Z,84.00
2023-03-23T22:17:45.668Z,84.30
2023-03-23T22:20:15.515Z,84.20
2023-03-23T22:22:44.500Z,83.60
2023-03-23T22:25:16.022Z,83.90
2023-03-23T22:27:45.879Z,84.60
2023-03-23T22:30:16.783Z,84.10
2023-03-23T22:32:45.878Z,84.00
2023-03-23T22:35:16.400Z,84.00
2023-03-23T22:37:45.681Z,84.10
2023-03-23T22:40:14.748Z,84.20
2023-03-23T22:42:43.730Z,84.10
2023-03-23T22:45:12.972Z,84.10
2023-03-23T22:47:43.370Z,84.10
2023-03-23T22:50:15.503Z,84.20
2023-03-23T22:52:46.690Z,84.30
2023-03-23T22:55:15.818Z,84.00
2023-03-23T22:57:44.870Z,84.80
2023-03-23T23:00:15.695Z,84.00
2023-03-23T23:02:46.390Z,84.00
2023-03-23T23:05:15.728Z,83.90
2023-03-23T23:07:44.806Z,84.00
2023-03-23T23:10:13.849Z,84.10
2023-03-23T23:12:43.367Z,84.00
2023-03-23T23:15:16.363Z,83.90
2023-03-23T23:17:46.877Z,83.90
2023-03-23T23:20:16.970Z,83.80
2023-03-23T23:22:46.071Z,83.90
2023-03-23T23:25:15.225Z,83.80
2023-03-23T23:27:44.200Z,83.70
2023-03-23T23:30:14.276Z,83.60
2023-03-23T23:32:44.641Z,83.80
2023-03-23T23:35:15.245Z,83.60
2023-03-23T23:37:44.255Z,83.70
2023-03-23T23:40:15.183Z,83.70
2023-03-23T23:42:45.023Z,83.70
2023-03-23T23:45:15.344Z,83.90
2023-03-23T23:47:45.729Z,84.00
2023-03-23T23:50:16.928Z,84.00
2023-03-23T23:52:46.595Z,83.80
2023-03-23T23:55:17.744Z,83.80
2023-03-23T23:57:49.663Z,83.90
